Alley Springs, Missouri
Current Conditions -  °F | °C
As of 4:09 AM on Sunday 23 Nov 2014 (Local Time) from KUNO Reporting Station
Light Rain Light Rain  
Wind Chill: 12°   Ceiling: 2900
Heat Index: 12°   Visibility: 10mi
Dew Point:   Wind: 10mph
Humidity: 83%   Direction: 140°SE
Pressure: 29.74"   Gusts: 21mph
Location:  37.1833°N, 91.4819°W
Report Text: KUNO 231009Z AUTO 14009G18KT 10SM -RA BKN029 OVC037 12/09 A2974 RMK AO2 RAB0956 P0000 T01170089
Loading
Personal Weather Stations






























Interactive Weather Map New forecast layout! Learn more

10-Day Weather Forecast

Advertisements
Track Severe Weather on mobile